Startpagina
METAR-TAF:

METAR-TAF

Vliegvelden :

Luchthaven Caïro Internationaal

Caïro, Egypte

breedte: 30-08N, lengte: 031-24E, hoogte: 64 m

Actueel weer

Dit bericht is 33 minuten geleden gemaakt, om 23:00 UTC
Wind 8 kt uit het noordoosten
Temperatuur 24°C
Vochtigheid 74%
Druk 1010 hPa
Zicht 10 km of meer
geen wolken onder 1500 m en geen cumulonimbus

METAR: HECA 262300Z 04008KT CAVOK 24/19 Q1010 NOSIG

Tijdstip: 01:33 (23:33 UTC)

Verwachting

Dit bericht is 6 uur en het 33 minuten geleden gemaakt, om 17:00 UTC
Verwachting geldig van 26 om 18 UTC tot 27 om 24 UTC
Wind 8 kt uit het noordwesten
Zicht 10 km of meer
Verspreide wolken op 2500 ft
Wijzigt naar
van 26 om 20 UTC tot 26 om 22 UTC
Wind 9 kt uit het noordoosten

TAF: HECA 261700Z 2618/2724 32008KT 9999 SCT025 BECMG 2620/2622 04009KT

Waarnemingen en weersverwachtingen van meer dan 4000 vliegvelden (METAR en TAF).

De beschikbare stations zijn de gele en rode punten op de kaart.

Ga met uw muis naar het station om de naam te zien.

Klik dan om waarnemingen en weersverwachtingen te zien.

kaart wijzigen: klik op de groene knoppen met een zwart kruis om in te zoomen, op de groene knop met een streepje om uit te zoomen of op de groene pijlen voor aangrenzende kaarten.


METAR-TAF: